createdAt,value
2023-01-12T00:02:12.495Z,37.97
2023-01-12T00:04:39.593Z,40.50
2023-01-12T00:07:11.757Z,37.88
2023-01-12T00:09:38.599Z,36.55
2023-01-12T00:12:08.384Z,44.15
2023-01-12T00:14:37.075Z,47.33
2023-01-12T00:17:04.189Z,44.83
2023-01-12T00:19:32.377Z,48.60
2023-01-12T00:22:11.498Z,40.63
2023-01-12T00:24:46.260Z,42.30
2023-01-12T00:27:16.449Z,44.80
2023-01-12T00:29:43.619Z,49.50
2023-01-12T00:32:15.876Z,49.20
2023-01-12T00:34:43.356Z,44.38
2023-01-12T00:37:10.829Z,46.88
2023-01-12T00:39:42.731Z,49.20
2023-01-12T00:42:31.668Z,43.85
2023-01-12T00:45:17.296Z,51.05
2023-01-12T00:47:44.210Z,42.13
2023-01-12T00:50:11.153Z,48.22
2023-01-12T00:52:40.135Z,47.30
2023-01-12T00:55:07.406Z,50.70
2023-01-12T00:57:34.231Z,51.20
2023-01-12T01:00:01.037Z,55.15
2023-01-12T01:02:30.444Z,47.63
2023-01-12T01:04:57.352Z,49.67
2023-01-12T01:07:24.734Z,58.40
2023-01-12T01:09:51.839Z,58.15
2023-01-12T01:12:19.389Z,49.42
2023-01-12T01:14:47.360Z,56.60
2023-01-12T01:17:14.401Z,62.45
2023-01-12T01:19:41.275Z,50.40
2023-01-12T01:22:08.124Z,52.10
2023-01-12T01:24:34.957Z,49.03
2023-01-12T01:27:01.788Z,61.70
2023-01-12T01:29:28.601Z,49.63
2023-01-12T01:31:55.812Z,52.35
2023-01-12T01:34:24.002Z,53.60
2023-01-12T01:36:50.875Z,53.08
2023-01-12T01:39:17.727Z,60.13
2023-01-12T01:41:45.170Z,53.72
2023-01-12T01:44:30.915Z,55.53
2023-01-12T01:47:08.153Z,55.17
2023-01-12T01:49:45.277Z,50.42
2023-01-12T01:52:16.696Z,55.13
2023-01-12T01:54:51.012Z,57.40
2023-01-12T01:57:18.516Z,59.92
2023-01-12T01:59:51.260Z,60.03
2023-01-12T02:02:19.791Z,54.35
2023-01-12T02:04:46.869Z,53.58
2023-01-12T02:07:14.119Z,54.67
2023-01-12T02:09:41.092Z,48.58
2023-01-12T02:12:26.908Z,57.33
2023-01-12T02:15:13.931Z,53.25
2023-01-12T02:17:59.444Z,55.83
2023-01-12T02:20:48.608Z,50.08
2023-01-12T02:23:31.716Z,47.45
2023-01-12T02:26:13.663Z,51.40
2023-01-12T02:28:56.167Z,52.08
2023-01-12T02:31:26.131Z,40.40
2023-01-12T02:34:20.962Z,48.80
2023-01-12T02:37:06.941Z,40.13
2023-01-12T02:39:50.504Z,42.20
2023-01-12T02:42:41.971Z,45.33
2023-01-12T02:45:23.995Z,45.60
2023-01-12T02:48:01.261Z,47.25
2023-01-12T02:50:36.638Z,46.35
2023-01-12T02:53:10.272Z,39.10
2023-01-12T02:55:39.300Z,39.03
2023-01-12T02:58:09.857Z,41.67
2023-01-12T03:00:38.257Z,39.38
2023-01-12T03:03:08.810Z,34.80
2023-01-12T03:05:42.408Z,40.95
2023-01-12T03:10:56.494Z,39.17
2023-01-12T03:13:28.527Z,38.22
2023-01-12T03:15:58.110Z,34.80
2023-01-12T03:18:33.114Z,37.30
2023-01-12T03:21:07.871Z,39.42
2023-01-12T03:24:02.232Z,33.85
2023-01-12T03:26:32.328Z,38.85
2023-01-12T03:29:07.465Z,41.47
2023-01-12T03:31:34.640Z,35.40
2023-01-12T03:34:02.795Z,31.42
2023-01-12T03:36:45.367Z,45.10
2023-01-12T03:39:48.028Z,33.92
2023-01-12T03:42:24.543Z,42.17
2023-01-12T03:44:59.355Z,39.60
2023-01-12T03:47:31.558Z,36.25
2023-01-12T03:50:07.276Z,41.70
2023-01-12T03:52:37.762Z,38.25
2023-01-12T03:55:07.658Z,41.55
2023-01-12T03:57:35.728Z,37.95
2023-01-12T04:00:05.447Z,35.75
2023-01-12T04:02:39.776Z,31.48
2023-01-12T04:05:08.807Z,33.60
2023-01-12T04:07:35.575Z,30.45
2023-01-12T04:10:02.413Z,28.77
2023-01-12T04:12:49.282Z,30.75
2023-01-12T04:15:16.095Z,28.50
2023-01-12T04:17:42.895Z,31.02
2023-01-12T04:20:10.891Z,36.35
2023-01-12T04:22:44.651Z,28.55
2023-01-12T04:25:13.769Z,30.75
2023-01-12T04:27:48.100Z,28.95
2023-01-12T04:30:18.651Z,32.63
2023-01-12T04:32:46.338Z,29.83
2023-01-12T04:35:13.431Z,25.17
2023-01-12T04:37:40.619Z,26.40
2023-01-12T04:40:10.493Z,25.50
2023-01-12T04:42:56.798Z,28.60
2023-01-12T04:45:23.738Z,27.15
2023-01-12T04:47:50.587Z,29.65
2023-01-12T04:50:17.706Z,24.48
2023-01-12T04:53:05.634Z,27.17
2023-01-12T04:55:33.786Z,25.50
2023-01-12T04:58:00.664Z,26.80
2023-01-12T05:00:27.654Z,26.80
2023-01-12T05:02:59.511Z,29.05
2023-01-12T05:05:26.986Z,23.63
2023-01-12T05:08:12.467Z,26.88
2023-01-12T05:10:39.844Z,22.20
2023-01-12T05:13:07.920Z,23.92
2023-01-12T05:15:34.711Z,23.52
2023-01-12T05:18:01.480Z,24.63
2023-01-12T05:20:28.306Z,26.02
2023-01-12T05:22:59.218Z,23.60
2023-01-12T05:25:27.034Z,23.05
2023-01-12T05:27:59.777Z,22.63
2023-01-12T05:30:31.870Z,26.58
2023-01-12T05:33:00.213Z,24.20
2023-01-12T05:35:27.050Z,24.67
2023-01-12T05:37:57.135Z,27.30
2023-01-12T05:40:24.865Z,22.65
2023-01-12T05:43:10.897Z,28.02
2023-01-12T05:45:37.805Z,22.70
2023-01-12T05:48:05.056Z,21.48
2023-01-12T05:50:31.892Z,25.10
2023-01-12T05:53:09.341Z,23.65
2023-01-12T05:55:38.027Z,20.80
2023-01-12T05:58:04.991Z,25.15
2023-01-12T06:00:31.824Z,23.35
2023-01-12T06:02:58.839Z,23.58
2023-01-12T06:05:25.706Z,19.05
2023-01-12T06:07:52.514Z,20.02
2023-01-12T06:10:19.602Z,20.23
2023-01-12T06:13:09.090Z,18.15
2023-01-12T06:15:35.996Z,21.05
2023-01-12T06:18:02.842Z,21.50
2023-01-12T06:20:29.749Z,20.15
2023-01-12T06:23:07.150Z,18.38
2023-01-12T06:25:34.015Z,21.58
2023-01-12T06:28:00.784Z,20.42
2023-01-12T06:30:27.633Z,21.27
2023-01-12T06:32:54.801Z,21.48
2023-01-12T06:35:21.634Z,23.10
2023-01-12T06:37:48.634Z,17.88
2023-01-12T06:40:15.662Z,20.40
2023-01-12T06:42:43.108Z,19.55
2023-01-12T06:45:10.548Z,20.33
2023-01-12T06:47:52.368Z,18.25
2023-01-12T06:50:19.523Z,21.23
2023-01-12T06:52:47.696Z,20.08
2023-01-12T06:55:14.884Z,19.92
2023-01-12T06:57:41.978Z,20.17
2023-01-12T07:00:09.547Z,19.73
2023-01-12T07:02:36.500Z,20.38
2023-01-12T07:05:03.390Z,21.58
2023-01-12T07:07:30.175Z,17.83
2023-01-12T07:09:57.168Z,20.20
2023-01-12T07:12:25.042Z,21.38
2023-01-12T07:14:51.921Z,20.95
2023-01-12T07:17:18.897Z,22.83
2023-01-12T07:19:45.743Z,21.13
2023-01-12T07:22:12.909Z,19.85
2023-01-12T07:24:39.692Z,22.95
2023-01-12T07:27:06.763Z,20.75
2023-01-12T07:29:33.623Z,19.67
2023-01-12T07:32:01.703Z,21.30
2023-01-12T07:34:29.860Z,20.45
2023-01-12T07:36:56.849Z,18.63
2023-01-12T07:39:23.908Z,22.52
2023-01-12T07:42:22.750Z,21.10
2023-01-12T07:44:51.332Z,22.05
2023-01-12T07:47:18.115Z,22.67
2023-01-12T07:49:44.911Z,20.80
2023-01-12T07:52:13.032Z,22.70
2023-01-12T07:54:40.261Z,21.60
2023-01-12T07:57:11.877Z,21.75
2023-01-12T07:59:38.712Z,23.63
2023-01-12T08:02:06.605Z,25.13
2023-01-12T08:04:34.035Z,23.73
2023-01-12T08:07:00.892Z,23.20
2023-01-12T08:09:27.934Z,22.10
2023-01-12T08:11:54.861Z,27.42
2023-01-12T08:14:28.062Z,30.45
2023-01-12T08:16:56.665Z,29.77
2023-01-12T08:19:27.237Z,34.33
2023-01-12T08:21:59.485Z,29.63
2023-01-12T08:24:32.168Z,30.90
2023-01-12T08:27:01.465Z,33.60
2023-01-12T08:29:44.249Z,34.17
2023-01-12T08:32:13.046Z,38.00
2023-01-12T08:34:42.963Z,37.63
2023-01-12T08:37:12.658Z,38.28
2023-01-12T08:39:39.866Z,40.90
2023-01-12T08:42:07.077Z,38.97
2023-01-12T08:44:35.506Z,44.45
2023-01-12T08:47:04.353Z,35.95
2023-01-12T08:49:32.506Z,41.22
2023-01-12T08:51:59.432Z,39.67
2023-01-12T08:54:26.466Z,42.10
2023-01-12T08:56:54.684Z,44.58
2023-01-12T08:59:21.615Z,46.53
2023-01-12T09:01:49.053Z,43.60
2023-01-12T09:04:16.253Z,46.45
2023-01-12T09:06:44.696Z,39.65
2023-01-12T09:09:14.582Z,52.85
2023-01-12T09:11:42.837Z,54.17
2023-01-12T09:14:12.989Z,48.03
2023-01-12T09:16:40.802Z,44.42
2023-01-12T09:19:08.934Z,46.40
2023-01-12T09:21:41.126Z,41.03
2023-01-12T09:24:08.364Z,40.22
2023-01-12T09:26:41.400Z,49.30
2023-01-12T09:29:09.981Z,46.85
2023-01-12T09:31:38.308Z,40.75
2023-01-12T09:34:06.224Z,45.35
2023-01-12T09:36:35.920Z,41.80
2023-01-12T09:39:04.414Z,42.70
2023-01-12T09:41:59.376Z,41.78
2023-01-12T09:44:49.861Z,47.20
2023-01-12T09:47:39.889Z,42.50
2023-01-12T09:50:18.203Z,50.83
2023-01-12T09:52:52.144Z,50.88
2023-01-12T09:55:22.113Z,48.17
2023-01-12T09:58:27.752Z,53.38
2023-01-12T10:00:57.175Z,49.08
2023-01-12T10:03:25.408Z,42.60
2023-01-12T10:05:55.669Z,45.95
2023-01-12T10:08:38.978Z,42.28
2023-01-12T10:11:08.783Z,38.28
2023-01-12T10:13:54.525Z,39.00
2023-01-12T10:16:33.303Z,39.67
2023-01-12T10:19:08.880Z,42.92
2023-01-12T10:21:35.891Z,43.55
2023-01-12T10:24:13.986Z,41.13
2023-01-12T10:26:45.305Z,40.00
2023-01-12T10:29:12.825Z,40.63
2023-01-12T10:31:39.784Z,40.17
2023-01-12T10:34:11.071Z,43.17
2023-01-12T10:36:44.531Z,35.13
2023-01-12T10:45:15.311Z,41.17
2023-01-12T10:47:43.945Z,37.53
2023-01-12T10:50:24.646Z,40.38
2023-01-12T10:53:29.240Z,42.05
2023-01-12T10:55:56.486Z,36.78
2023-01-12T10:58:27.433Z,43.70
2023-01-12T11:00:54.576Z,32.53
2023-01-12T11:03:40.904Z,32.83
2023-01-12T11:06:31.923Z,36.25
2023-01-12T11:08:59.342Z,40.72
2023-01-12T11:11:31.933Z,36.58
2023-01-12T11:14:03.613Z,36.40
2023-01-12T11:16:37.366Z,38.58
2023-01-12T11:19:17.112Z,36.03
2023-01-12T11:22:10.655Z,35.80
2023-01-12T11:24:53.002Z,40.97
2023-01-12T11:27:39.717Z,41.00
2023-01-12T11:30:29.094Z,37.70
2023-01-12T11:33:17.120Z,39.38
2023-01-12T11:35:59.049Z,46.00
2023-01-12T11:38:34.830Z,44.78
2023-01-12T11:41:03.487Z,42.75
2023-01-12T11:43:50.279Z,42.70
2023-01-12T11:46:27.846Z,50.38
2023-01-12T11:49:12.976Z,44.60
2023-01-12T11:51:40.441Z,48.35
2023-01-12T11:54:10.590Z,47.53
2023-01-12T11:56:55.783Z,37.25
2023-01-12T11:59:41.732Z,36.40
2023-01-12T12:02:32.926Z,36.42
2023-01-12T12:05:18.877Z,44.50
2023-01-12T12:08:14.578Z,41.25
2023-01-12T12:11:04.551Z,42.42
2023-01-12T12:13:49.450Z,41.88
2023-01-12T12:16:21.381Z,37.95
2023-01-12T12:19:26.097Z,42.38
2023-01-12T12:22:02.668Z,37.10
2023-01-12T12:24:50.869Z,38.60
2023-01-12T12:27:52.256Z,35.95
2023-01-12T12:30:48.848Z,37.53
2023-01-12T12:33:45.697Z,41.35
2023-01-12T12:36:33.618Z,37.75
2023-01-12T12:39:30.696Z,36.80
2023-01-12T12:42:25.493Z,39.22
2023-01-12T12:45:17.431Z,32.83
2023-01-12T12:48:00.696Z,36.33
2023-01-12T12:50:29.857Z,33.80
2023-01-12T12:53:17.939Z,34.42
2023-01-12T12:55:46.100Z,33.53
2023-01-12T12:58:21.658Z,25.42
2023-01-12T13:00:50.463Z,31.50
2023-01-12T13:03:39.204Z,31.35
2023-01-12T13:06:19.216Z,32.65
2023-01-12T13:08:47.880Z,29.38
2023-01-12T13:11:14.718Z,33.85
2023-01-12T13:13:57.984Z,37.05
2023-01-12T13:16:29.398Z,36.70
2023-01-12T13:18:56.141Z,30.90
2023-01-12T13:21:57.906Z,31.27
2023-01-12T13:24:39.589Z,35.63
2023-01-12T13:27:44.005Z,32.47
2023-01-12T13:33:17.111Z,40.15
2023-01-12T13:35:45.047Z,36.97
2023-01-12T13:38:20.938Z,39.63
2023-01-12T13:40:56.156Z,34.45
2023-01-12T13:43:34.201Z,35.45
2023-01-12T13:46:06.207Z,34.05
2023-01-12T13:48:35.882Z,34.92
2023-01-12T13:51:27.954Z,26.13
2023-01-12T13:54:51.146Z,30.23
2023-01-12T13:57:23.837Z,28.48
2023-01-12T14:00:08.977Z,28.77
2023-01-12T14:02:43.264Z,34.53
2023-01-12T14:05:47.588Z,29.35
2023-01-12T14:11:25.541Z,31.08
2023-01-12T14:14:47.566Z,28.52
2023-01-12T14:17:43.036Z,29.50
2023-01-12T14:20:23.445Z,30.70
2023-01-12T14:23:05.813Z,28.20
2023-01-12T14:25:32.863Z,28.83
2023-01-12T14:28:03.972Z,25.30
2023-01-12T14:30:54.344Z,26.70
2023-01-12T14:33:25.713Z,27.85
2023-01-12T14:35:56.070Z,24.63
2023-01-12T14:38:27.911Z,29.02
2023-01-12T14:41:27.666Z,22.02
2023-01-12T14:44:13.842Z,23.33
2023-01-12T14:46:50.432Z,27.52
2023-01-12T14:49:22.230Z,24.90
2023-01-12T14:52:00.640Z,23.42
2023-01-12T14:54:29.220Z,23.77
2023-01-12T14:57:07.922Z,25.02
2023-01-12T14:59:43.871Z,25.63
2023-01-12T15:02:13.945Z,26.60
2023-01-12T15:04:57.941Z,30.95
2023-01-12T15:07:37.767Z,34.10
2023-01-12T15:10:04.783Z,32.05
2023-01-12T15:12:47.179Z,32.88
2023-01-12T15:15:17.017Z,42.03
2023-01-12T15:18:03.127Z,35.80
2023-01-12T15:20:53.429Z,42.47
2023-01-12T15:23:44.624Z,35.72
2023-01-12T15:26:11.599Z,42.47
2023-01-12T15:28:40.226Z,43.17
2023-01-12T15:31:35.007Z,44.55
2023-01-12T15:34:07.260Z,51.90
2023-01-12T15:36:37.169Z,47.80
2023-01-12T15:39:04.052Z,57.08
2023-01-12T15:41:50.712Z,52.67
2023-01-12T15:44:21.005Z,55.03
2023-01-12T15:46:48.093Z,50.35
2023-01-12T15:49:16.011Z,52.92
2023-01-12T15:51:46.930Z,50.80
2023-01-12T15:54:14.983Z,41.60
2023-01-12T15:56:41.789Z,50.35
2023-01-12T15:59:08.595Z,41.38
2023-01-12T16:01:41.517Z,42.55
2023-01-12T16:07:06.922Z,43.70
2023-01-12T16:09:33.803Z,40.72
2023-01-12T16:12:00.631Z,43.72
2023-01-12T16:14:27.477Z,41.20
2023-01-12T16:16:54.425Z,43.97
2023-01-12T16:19:22.301Z,44.40
2023-01-12T16:21:49.288Z,45.58
2023-01-12T16:24:16.432Z,34.83
2023-01-12T16:26:43.735Z,43.22
2023-01-12T16:29:10.605Z,39.38
2023-01-12T16:31:39.337Z,32.05
2023-01-12T16:34:06.821Z,31.23
2023-01-12T16:36:34.560Z,31.13
2023-01-12T16:39:01.367Z,32.55
2023-01-12T16:41:28.205Z,26.73
2023-01-12T16:43:58.512Z,27.88
2023-01-12T16:46:25.325Z,28.00
2023-01-12T16:48:55.228Z,28.40
2023-01-12T16:51:22.652Z,27.02
2023-01-12T16:53:55.424Z,29.15
2023-01-12T16:56:22.227Z,24.30
2023-01-12T16:58:49.139Z,27.27
2023-01-12T17:01:18.727Z,23.27
2023-01-12T17:03:46.079Z,27.00
2023-01-12T17:06:16.942Z,26.00
2023-01-12T17:08:43.906Z,27.38
2023-01-12T17:11:13.320Z,26.48
2023-01-12T17:13:40.529Z,22.85
2023-01-12T17:16:10.049Z,24.92
2023-01-12T17:18:38.384Z,23.92
2023-01-12T17:21:07.654Z,21.45
2023-01-12T17:23:53.688Z,23.17
2023-01-12T17:26:20.571Z,22.40
2023-01-12T17:28:48.015Z,24.23
2023-01-12T17:31:18.716Z,28.15
2023-01-12T17:34:08.769Z,22.65
2023-01-12T17:36:35.658Z,22.50
2023-01-12T17:39:02.629Z,24.30
2023-01-12T17:41:48.440Z,24.60
2023-01-12T17:44:16.781Z,24.80
2023-01-12T17:46:44.815Z,21.80
2023-01-12T17:49:12.612Z,22.80
2023-01-12T17:51:40.525Z,22.80
2023-01-12T17:54:12.510Z,24.13
2023-01-12T17:56:39.481Z,29.17
2023-01-12T17:59:06.906Z,25.48
2023-01-12T18:01:35.858Z,28.83
2023-01-12T18:04:04.141Z,27.20
2023-01-12T18:06:31.404Z,25.63
2023-01-12T18:08:59.665Z,21.30
2023-01-12T18:11:27.350Z,22.00
2023-01-12T18:13:56.192Z,20.15
2023-01-12T18:16:23.672Z,20.13
2023-01-12T18:18:51.891Z,18.13
2023-01-12T18:21:24.174Z,17.92
2023-01-12T18:23:52.684Z,19.10
2023-01-12T18:26:24.888Z,19.48
2023-01-12T18:28:53.070Z,21.63
2023-01-12T18:31:23.558Z,22.40
2023-01-12T18:33:52.832Z,22.08
2023-01-12T18:36:22.253Z,22.02
2023-01-12T18:38:50.776Z,21.85
2023-01-12T18:41:37.634Z,22.42
2023-01-12T18:44:06.339Z,20.85
2023-01-12T18:46:53.312Z,22.48
2023-01-12T18:49:21.819Z,20.20
2023-01-12T18:52:07.632Z,22.80
2023-01-12T18:54:53.347Z,22.88
2023-01-12T18:57:23.710Z,21.33
2023-01-12T18:59:53.643Z,22.33
2023-01-12T19:02:22.367Z,19.08
2023-01-12T19:04:50.178Z,17.48
2023-01-12T19:07:30.661Z,18.20
2023-01-12T19:09:58.549Z,21.27
2023-01-12T19:12:26.680Z,23.65
2023-01-12T19:15:11.847Z,21.50
2023-01-12T19:17:41.777Z,19.20
2023-01-12T19:20:15.916Z,23.90
2023-01-12T19:23:02.505Z,19.25
2023-01-12T19:26:08.049Z,21.02
2023-01-12T19:28:38.269Z,19.88
2023-01-12T19:31:09.939Z,23.55
2023-01-12T19:33:38.059Z,20.83
2023-01-12T19:36:10.366Z,22.50
2023-01-12T19:38:37.657Z,22.73
2023-01-12T19:41:12.234Z,23.10
2023-01-12T19:43:44.954Z,23.50
2023-01-12T19:46:13.108Z,21.90
2023-01-12T19:48:40.061Z,23.38
2023-01-12T19:51:10.901Z,22.55
2023-01-12T19:53:40.223Z,24.50
2023-01-12T19:56:11.783Z,22.83
2023-01-12T19:58:39.240Z,22.17
2023-01-12T20:01:06.523Z,22.95
2023-01-12T20:03:34.821Z,22.77
2023-01-12T20:06:06.518Z,22.70
2023-01-12T20:08:33.951Z,23.15
2023-01-12T20:11:04.703Z,25.30
2023-01-12T20:13:32.991Z,24.25
2023-01-12T20:16:04.612Z,25.42
2023-01-12T20:18:31.521Z,23.17
2023-01-12T20:21:01.132Z,25.52
2023-01-12T20:23:28.016Z,25.42
2023-01-12T20:25:55.498Z,21.30
2023-01-12T20:28:22.402Z,26.63
2023-01-12T20:30:49.208Z,25.52
2023-01-12T20:33:16.323Z,25.38
2023-01-12T20:35:48.143Z,54.47
2023-01-12T20:38:16.721Z,24.23
2023-01-12T20:40:45.176Z,23.92
2023-01-12T20:43:12.512Z,24.17
2023-01-12T20:45:42.955Z,24.42
2023-01-12T20:48:13.567Z,24.55
2023-01-12T20:50:46.843Z,25.08
2023-01-12T20:53:14.976Z,24.02
2023-01-12T20:55:44.044Z,21.40
2023-01-12T20:58:11.019Z,24.00
2023-01-12T21:00:37.889Z,24.70
2023-01-12T21:03:05.736Z,22.35
2023-01-12T21:05:34.725Z,22.05
2023-01-12T21:08:07.890Z,22.38
2023-01-12T21:10:37.498Z,22.13
2023-01-12T21:13:05.124Z,22.10
2023-01-12T21:15:32.005Z,23.58
2023-01-12T21:17:58.811Z,20.95
2023-01-12T21:20:25.697Z,24.85
2023-01-12T21:22:53.520Z,24.25
2023-01-12T21:25:20.398Z,21.80
2023-01-12T21:27:47.368Z,25.50
2023-01-12T21:30:14.200Z,21.20
2023-01-12T21:32:43.427Z,23.08
2023-01-12T21:35:10.537Z,23.70
2023-01-12T21:37:37.424Z,23.40
2023-01-12T21:40:04.798Z,26.95
2023-01-12T21:42:50.370Z,22.95
2023-01-12T21:45:17.608Z,23.73
2023-01-12T21:47:46.274Z,21.58
2023-01-12T21:50:13.494Z,22.13
2023-01-12T21:52:41.940Z,20.23
2023-01-12T21:55:13.449Z,23.10
2023-01-12T21:57:41.963Z,19.73
2023-01-12T22:00:10.388Z,20.50
2023-01-12T22:02:40.526Z,21.65
2023-01-12T22:05:07.784Z,22.80
2023-01-12T22:07:34.556Z,18.88
2023-01-12T22:10:18.986Z,17.20
2023-01-12T22:12:52.549Z,20.50
2023-01-12T22:17:47.364Z,21.92
2023-01-12T22:20:16.512Z,22.23
2023-01-12T22:22:44.290Z,21.83
2023-01-12T22:25:13.725Z,19.95
2023-01-12T22:27:43.795Z,20.88
2023-01-12T22:30:13.773Z,19.50
2023-01-12T22:32:43.078Z,18.45
2023-01-12T22:35:11.038Z,18.88
2023-01-12T22:37:38.820Z,21.75
2023-01-12T22:40:09.371Z,19.15
2023-01-12T22:42:54.723Z,21.27
2023-01-12T22:45:21.653Z,18.60
2023-01-12T22:47:53.573Z,22.80
2023-01-12T22:50:20.854Z,22.60
2023-01-12T22:52:54.810Z,21.30
2023-01-12T22:55:22.934Z,15.18
2023-01-12T22:57:49.756Z,20.45
2023-01-12T23:00:18.416Z,21.42
2023-01-12T23:03:01.506Z,18.95
2023-01-12T23:05:36.180Z,20.27
2023-01-12T23:08:06.607Z,14.63
2023-01-12T23:10:34.278Z,21.80
2023-01-12T23:13:17.635Z,21.23
2023-01-12T23:15:49.050Z,21.27
2023-01-12T23:18:18.966Z,22.90
2023-01-12T23:20:46.585Z,21.70
2023-01-12T23:23:14.055Z,20.83
2023-01-12T23:25:44.321Z,21.38
2023-01-12T23:28:12.119Z,21.83
2023-01-12T23:30:39.045Z,18.50
2023-01-12T23:33:06.076Z,21.27
2023-01-12T23:35:38.979Z,19.42
2023-01-12T23:38:07.443Z,21.27
2023-01-12T23:40:34.330Z,18.08
2023-01-12T23:43:01.515Z,21.00
2023-01-12T23:45:28.687Z,19.90
2023-01-12T23:47:55.521Z,18.60
2023-01-12T23:50:22.359Z,19.90
2023-01-12T23:52:52.343Z,15.18
2023-01-12T23:55:19.210Z,18.17
2023-01-12T23:57:47.699Z,20.27
